West Stewartstown, New Hampshire
Current Conditions -  °F | °C
As of 2:21 PM on Tuesday 21 Oct 2014 (Local Time) from CYSC Reporting Station
Light Rain Light Rain  
Wind Chill: 44°   Ceiling: 4200
Heat Index: 46°   Visibility: 9mi
Dew Point: 45°   Wind: 6mph
Humidity: 93%   Direction: 50°NE
Pressure: 30.03"   Gusts: NA
Location:  45°N, 71.53°W
Report Text: CYSC 211821Z AUTO 05005KT 9SM -RA SCT013 SCT019 OVC042 08/07 A3003 RMK SLP178
Loading
Personal Weather Stations






























Interactive Weather Map
Tropical Storm Tracking
New forecast layout! Learn more

10-Day Weather Forecast

Advertisements
Track Severe Weather on mobile